Quick Links (Output Below):   Max & Min Temps   /   Climate Reports   /   Zone Forecasts
River Forecasts   /   Forestry Forecasts   /   Aviation Forecasts   /   Radars   /   Features

Terminal Aerodrome Forecast (Texarkana)

Pick a Site:
Arkadelphia | El Dorado | Fayetteville | Fort Smith | Harrison | Highfill | Hot Springs | Jonesboro
Little Rock | Monticello | Mountain Home | Pine Bluff | Texarkana
 Forecast 

KTXK 260524Z 2606/2706 VRB03KT P6SM BKN250
     FM261100 03008KT P6SM BKN015
     FM261500 03010KT P6SM BKN020
     FM262200 01010KT P6SM SCT050
     FM270000 03003KT P6SM SCT250=


 Latest METARs (Observations) 
How to Decode METARs
05Z KTXK 260453Z AUTO 23003KT 10SM CLR 24/21 A3004 RMK AO2 SLP167
         T02390206 $
         
04Z KTXK 260353Z AUTO 00000KT 10SM CLR 23/20 A3003 RMK AO2 SLP163
         T02280200 $
         
03Z KTXK 260253Z AUTO 00000KT 10SM CLR 24/20 A3004 RMK AO2 SLP166
         T02440200 53010 $
         
02Z KTXK 260153Z 00000KT 10SM CLR 24/20 A3002 RMK AO2 SLP162 T02390200
         $
         
01Z KTXK 260053Z 00000KT 10SM CLR 25/20 A3001 RMK AO2 SLP158 T02500200
         $
         
00Z KTXK 252353Z 19003KT 10SM CLR 29/19 A3001 RMK AO2 SLP156 T02890194
         10328 20289 53006 $
         
***** Today's Observations (Above) *****


23Z KTXK 252253Z 16004KT 10SM CLR 31/19 A2999 RMK AO2 SLP151 T03060189
         $
         
22Z KTXK 252153Z VRB04KT 10SM CLR 32/19 A2998 RMK AO2 SLP146 T03170194
         $
         
21Z KTXK 252053Z VRB04KT 10SM FEW047 33/18 A2999 RMK AO2 SLP148
         T03280183 56019 $
         
20Z KTXK 251953Z VRB05KT 10SM FEW046 32/19 A2999 RMK AO2 SLP151
         T03220194 $
         
***** Yesterday's Observations (Above) *****


Back to Main Page
http://www.srh.noaa.gov/lzk/qfcst.php

USA.gov is the U.S. government's official web portal to all federal, state and local government web resources and services.